Time;durP1;ratioP1;P1;durP2;ratioP2;P2;SDS_P1;SDS_P2;PMS_P1;PMS_P2;Temp;Humidity;BMP_temperature;BMP_pressure;BME280_temperature;BME280_humidity;BME280_pressure;Samples;Min_cycle;Max_cycle;Signal;HPM_P1;HPM_P2
2022/01/01 00:01:48;;;;;;;3.58;1.30;;;28.50;99.00;;;;;;5032164;28;20041;-67
2022/01/01 00:04:15;;;;;;;6.57;1.38;;;28.80;97.80;;;;;;5028725;28;20026;-67
2022/01/01 00:06:42;;;;;;;4.50;1.00;;;29.30;95.80;;;;;;5030682;28;20017;-68
2022/01/01 00:09:09;;;;;;;4.32;1.63;;;29.50;94.50;;;;;;5032741;28;20022;-67
2022/01/01 00:11:36;;;;;;;6.22;1.48;;;29.70;93.80;;;;;;5026467;28;20029;-65
2022/01/01 00:14:03;;;;;;;4.68;1.10;;;29.70;95.40;;;;;;5030602;28;20045;-65
2022/01/01 00:16:30;;;;;;;2.78;1.05;;;29.50;94.90;;;;;;5028809;28;20037;-67
2022/01/01 00:18:57;;;;;;;4.38;1.20;;;29.70;95.20;;;;;;5029380;28;20028;-68
2022/01/01 00:21:24;;;;;;;4.22;1.42;;;29.60;95.00;;;;;;5029283;28;20037;-67
2022/01/01 00:23:51;;;;;;;4.40;1.67;;;30.10;95.20;;;;;;5032285;28;20025;-65
2022/01/01 00:26:18;;;;;;;5.45;2.35;;;30.30;94.70;;;;;;5026475;28;20018;-66
2022/01/01 00:28:45;;;;;;;5.55;1.95;;;30.60;94.60;;;;;;5027549;28;20029;-68
2022/01/01 00:31:12;;;;;;;3.10;1.00;;;30.70;92.60;;;;;;5027907;28;20025;-67
2022/01/01 00:33:39;;;;;;;4.55;1.45;;;31.00;92.90;;;;;;5032159;28;20021;-67
2022/01/01 00:36:07;;;;;;;2.67;1.63;;;30.70;92.20;;;;;;5027930;28;20468;-67
2022/01/01 00:38:34;;;;;;;8.18;1.38;;;30.60;92.50;;;;;;5030389;28;20112;-68
2022/01/01 00:41:01;;;;;;;3.10;0.88;;;30.90;93.20;;;;;;5027562;28;20149;-67
2022/01/01 00:43:27;;;;;;;2.38;1.13;;;31.20;91.90;;;;;;5031815;28;20025;-67
2022/01/01 00:45:54;;;;;;;5.10;2.83;;;31.20;91.00;;;;;;5029632;28;20018;-65
2022/01/01 00:48:21;;;;;;;3.75;1.50;;;31.40;91.20;;;;;;5005814;28;20044;-67
2022/01/01 00:50:48;;;;;;;3.03;1.80;;;31.40;90.30;;;;;;5027322;28;20024;-67
2022/01/01 00:53:15;;;;;;;5.22;1.05;;;31.60;91.90;;;;;;5013352;28;20029;-68
2022/01/01 00:55:42;;;;;;;3.35;0.73;;;31.70;90.80;;;;;;5031505;28;20031;-68
2022/01/01 00:58:09;;;;;;;4.53;1.42;;;32.00;86.40;;;;;;5030329;28;20029;-65
2022/01/01 01:00:37;;;;;;;3.80;0.95;;;32.40;87.00;;;;;;5028265;28;20013;-66
2022/01/01 01:03:11;;;;;;;3.55;1.42;;;32.40;83.50;;;;;;5028338;28;20030;-68
2022/01/01 01:05:39;;;;;;;3.83;0.90;;;32.20;84.90;;;;;;5026360;28;20014;-68
2022/01/01 01:08:10;;;;;;;3.67;1.20;;;32.50;84.80;;;;;;5026726;28;20033;-65
2022/01/01 01:10:38;;;;;;;2.63;0.77;;;32.80;88.40;;;;;;5026618;28;20481;-67
2022/01/01 01:13:07;;;;;;;2.97;1.40;;;33.20;85.70;;;;;;5031073;28;20046;-67
2022/01/01 01:15:35;;;;;;;1.88;0.85;;;32.90;81.30;;;;;;5031873;28;20029;-68
2022/01/01 01:18:06;;;;;;;1.63;0.70;;;32.40;83.20;;;;;;5025110;28;20032;-67
2022/01/01 01:20:33;;;;;;;2.17;0.50;;;32.50;83.90;;;;;;5027854;28;20184;-69
2022/01/01 01:23:01;;;;;;;2.42;1.17;;;32.40;83.10;;;;;;5027637;28;20017;-69
2022/01/01 01:25:31;;;;;;;2.83;1.35;;;31.80;82.70;;;;;;5030198;28;20022;-65
2022/01/01 01:28:06;;;;;;;2.83;1.58;;;31.10;84.20;;;;;;5023231;28;20566;-68
2022/01/01 01:30:38;;;;;;;2.50;0.98;;;31.40;87.40;;;;;;5029884;28;20032;-67
2022/01/01 01:33:06;;;;;;;4.55;1.35;;;31.80;83.90;;;;;;5028561;28;20036;-65
2022/01/01 01:35:34;;;;;;;3.65;1.00;;;32.00;83.80;;;;;;5031477;28;20037;-67
2022/01/01 01:38:01;;;;;;;4.25;1.38;;;31.10;85.60;;;;;;5027154;28;20387;-67
2022/01/01 01:40:29;;;;;;;4.75;1.50;;;30.90;88.20;;;;;;5032596;28;20021;-68
2022/01/01 01:42:56;;;;;;;4.03;1.73;;;31.40;90.30;;;;;;5026376;28;20053;-67
2022/01/01 01:45:27;;;;;;;2.70;0.52;;;31.30;87.90;;;;;;5010619;28;20026;-66
2022/01/01 01:47:54;;;;;;;4.95;1.25;;;31.00;86.50;;;;;;5027259;28;20108;-68
2022/01/01 01:50:21;;;;;;;2.92;1.02;;;30.80;86.80;;;;;;5001358;28;20030;-67
2022/01/01 01:52:52;;;;;;;3.10;0.95;;;31.10;85.10;;;;;;5030530;28;20049;-68
2022/01/01 01:55:19;;;;;;;1.98;0.70;;;31.90;80.80;;;;;;5030193;28;20033;-66
2022/01/01 01:57:47;;;;;;;5.53;1.35;;;32.50;81.70;;;;;;5030201;28;20064;-68
2022/01/01 02:00:51;;;;;;;1.42;0.80;;;32.60;79.70;;;;;;5031154;28;20480;-65
2022/01/01 02:03:11;;;;;;;5.55;1.23;;;33.20;83.20;;;;;;5024525;28;20013;-68
2022/01/01 02:05:39;;;;;;;1.88;0.70;;;33.80;81.00;;;;;;5029080;28;20024;-67
2022/01/01 02:08:07;;;;;;;3.10;1.30;;;34.20;76.10;;;;;;5026733;28;20044;-66
2022/01/01 02:10:35;;;;;;;2.75;0.90;;;34.00;76.50;;;;;;5029834;28;20051;-67
2022/01/01 02:13:19;;;;;;;5.70;3.40;;;34.80;71.00;;;;;;5020301;28;20052;-67
2022/01/01 02:18:20;;;;;;;3.05;0.80;;;35.40;69.70;;;;;;5019371;28;20021;-68
2022/01/01 02:20:51;;;;;;;3.10;0.95;;;35.80;64.80;;;;;;5016858;28;20713;-66
2022/01/01 02:23:18;;;;;;;;;;;35.90;68.90;;;;;;5016601;28;20542;-67
2022/01/01 02:25:48;;;;;;;3.50;1.20;;;35.90;66.10;;;;;;5002831;28;20317;-68
2022/01/01 02:28:16;;;;;;;3.67;2.80;;;36.00;66.30;;;;;;5019533;28;20080;-68
2022/01/01 02:30:43;;;;;;;2.97;2.00;;;35.70;66.50;;;;;;5010835;28;20081;-67
2022/01/01 02:33:10;;;;;;;2.22;1.40;;;35.30;67.30;;;;;;5012792;28;20076;-68
2022/01/01 02:35:37;;;;;;;2.47;0.88;;;35.00;66.80;;;;;;5016148;28;20419;-68
2022/01/01 02:38:04;;;;;;;3.63;1.08;;;35.40;66.20;;;;;;5014198;28;20033;-68
2022/01/01 02:40:31;;;;;;;2.42;0.80;;;35.40;64.90;;;;;;5013982;28;20092;-68
2022/01/01 02:42:58;;;;;;;3.92;1.85;;;34.80;68.50;;;;;;5013736;28;20015;-66
2022/01/01 02:45:25;;;;;;;2.28;0.68;;;35.40;65.30;;;;;;5013616;28;20015;-66
2022/01/01 02:47:52;;;;;;;2.40;1.35;;;35.90;62.00;;;;;;5012209;28;20134;-66
2022/01/01 02:50:19;;;;;;;1.90;0.90;;;36.20;64.10;;;;;;5011305;28;20432;-66
2022/01/01 02:52:47;;;;;;;1.65;0.57;;;36.40;64.50;;;;;;5017841;28;20025;-67
2022/01/01 02:55:14;;;;;;;2.58;0.73;;;36.60;63.70;;;;;;5012812;28;20030;-68
2022/01/01 02:57:41;;;;;;;3.58;0.82;;;36.70;63.60;;;;;;5020849;28;20049;-67
2022/01/01 03:00:08;;;;;;;1.02;0.40;;;36.10;61.50;;;;;;5017178;28;20022;-66
2022/01/01 03:02:35;;;;;;;2.33;1.10;;;36.30;58.40;;;;;;4996505;28;20230;-68
2022/01/01 03:05:03;;;;;;;3.35;0.80;;;36.50;58.50;;;;;;5021032;28;20018;-67
2022/01/01 03:07:30;;;;;;;2.08;0.95;;;36.60;61.60;;;;;;5018421;28;20018;-68
2022/01/01 03:09:57;;;;;;;2.35;1.23;;;36.90;58.80;;;;;;5021591;28;20029;-68
2022/01/01 03:12:24;;;;;;;2.10;1.75;;;37.30;61.30;;;;;;5017675;28;20046;-68
2022/01/01 03:14:51;;;;;;;4.07;1.20;;;37.40;60.50;;;;;;5020370;28;20026;-65
2022/01/01 03:17:18;;;;;;;2.45;1.50;;;37.20;58.70;;;;;;5017755;28;20018;-66
2022/01/01 03:19:45;;;;;;;2.33;0.85;;;37.70;58.30;;;;;;5018017;28;20452;-67
2022/01/01 03:22:12;;;;;;;2.08;0.75;;;38.40;55.20;;;;;;5019578;28;20017;-68
2022/01/01 03:24:39;;;;;;;2.63;0.88;;;38.90;53.80;;;;;;5020823;28;20021;-67
2022/01/01 03:27:06;;;;;;;1.27;0.60;;;38.70;53.00;;;;;;5017325;28;20482;-68
2022/01/01 03:29:33;;;;;;;2.83;0.90;;;38.90;57.70;;;;;;5016458;28;20030;-67
2022/01/01 03:32:00;;;;;;;4.70;1.00;;;38.80;58.90;;;;;;5012892;28;20132;-68
2022/01/01 03:34:27;;;;;;;3.72;1.08;;;38.90;56.90;;;;;;5015341;28;20030;-68
2022/01/01 03:36:54;;;;;;;3.45;1.02;;;38.50;58.40;;;;;;5011698;28;20014;-68
2022/01/01 03:39:27;;;;;;;2.70;1.10;;;38.20;56.80;;;;;;5012157;28;20268;-68
2022/01/01 03:41:54;;;;;;;3.35;1.00;;;38.20;56.80;;;;;;5015421;28;20018;-68
2022/01/01 03:44:21;;;;;;;3.80;0.80;;;38.20;59.30;;;;;;4992978;28;20028;-68
2022/01/01 03:46:48;;;;;;;2.88;0.90;;;37.40;59.20;;;;;;5017596;28;20030;-67
2022/01/01 03:49:15;;;;;;;5.28;1.20;;;36.90;60.60;;;;;;5014363;28;20026;-67
2022/01/01 03:51:42;;;;;;;3.88;1.17;;;37.00;58.80;;;;;;5015290;28;20702;-67
2022/01/01 03:54:11;;;;;;;2.97;0.90;;;37.20;58.70;;;;;;4992149;28;20054;-66
2022/01/01 03:56:38;;;;;;;4.72;1.27;;;37.20;60.50;;;;;;5013776;28;20022;-67
2022/01/01 03:59:05;;;;;;;2.33;0.73;;;37.40;60.70;;;;;;5013130;28;20481;-67
2022/01/01 04:01:32;;;;;;;1.70;0.85;;;37.10;60.20;;;;;;5017668;28;20018;-68
2022/01/01 04:03:59;;;;;;;2.92;1.00;;;36.80;59.10;;;;;;5019017;28;20017;-68
2022/01/01 04:06:26;;;;;;;3.05;0.90;;;37.00;59.90;;;;;;5018563;28;20040;-68
2022/01/01 04:08:54;;;;;;;4.72;0.98;;;37.10;60.10;;;;;;5016872;28;20026;-68
2022/01/01 04:11:21;;;;;;;4.38;1.05;;;37.20;61.10;;;;;;5014918;28;20034;-68
2022/01/01 04:13:49;;;;;;;2.78;1.10;;;37.10;61.80;;;;;;5013312;28;20049;-68
2022/01/01 04:16:17;;;;;;;3.88;1.25;;;36.60;60.40;;;;;;5016415;28;20131;-67
2022/01/01 04:18:45;;;;;;;3.63;1.10;;;36.10;61.90;;;;;;5011473;28;20023;-67
2022/01/01 04:21:13;;;;;;;4.15;0.80;;;36.00;60.30;;;;;;5017661;28;20021;-67
2022/01/01 04:23:41;;;;;;;3.22;1.05;;;36.10;61.70;;;;;;5015718;28;20029;-67
2022/01/01 04:26:09;;;;;;;4.53;1.35;;;36.10;61.20;;;;;;5013227;28;20477;-66
2022/01/01 04:28:37;;;;;;;3.92;1.08;;;35.50;63.90;;;;;;5016940;28;20052;-68
2022/01/01 04:31:05;;;;;;;5.60;1.08;;;35.50;64.00;;;;;;5016932;28;20017;-68
2022/01/01 04:33:32;;;;;;;2.45;0.73;;;35.30;63.50;;;;;;5015001;28;20505;-67
2022/01/01 04:35:59;;;;;;;3.97;1.05;;;35.00;63.30;;;;;;5015065;28;20033;-67
2022/01/01 04:38:36;;;;;;;3.22;1.05;;;34.90;63.80;;;;;;5016472;28;20119;-68
2022/01/01 04:41:14;;;;;;;1.88;0.80;;;35.10;64.60;;;;;;5012851;28;20014;-67
2022/01/01 04:43:43;;;;;;;4.00;1.13;;;35.70;65.50;;;;;;5013514;28;20021;-67
2022/01/01 04:46:10;;;;;;;3.92;1.10;;;36.10;63.70;;;;;;5016064;28;20018;-67
2022/01/01 04:48:37;;;;;;;4.95;1.50;;;36.20;62.30;;;;;;5018990;28;20044;-68
2022/01/01 04:51:07;;;;;;;2.80;0.98;;;36.60;63.00;;;;;;5018283;28;20108;-67
2022/01/01 04:53:35;;;;;;;5.05;1.00;;;36.80;63.20;;;;;;5018986;28;20026;-68
2022/01/01 04:56:06;;;;;;;2.22;0.90;;;36.70;62.60;;;;;;5011922;28;20021;-67
2022/01/01 04:58:34;;;;;;;2.75;1.08;;;36.60;62.40;;;;;;5019542;28;20156;-67
2022/01/01 05:01:01;;;;;;;5.00;0.93;;;36.40;62.70;;;;;;5010968;28;20022;-67
2022/01/01 05:03:28;;;;;;;4.18;1.05;;;36.20;65.00;;;;;;5003770;28;20033;-66
2022/01/01 05:05:55;;;;;;;1.63;0.80;;;36.20;64.50;;;;;;5011740;28;20037;-67
2022/01/01 05:08:22;;;;;;;5.07;1.10;;;35.70;65.30;;;;;;5011935;28;20025;-67
2022/01/01 05:10:49;;;;;;;3.13;1.08;;;35.50;65.50;;;;;;4317918;28;9999918;-66
2022/01/01 05:13:18;;;;;;;2.03;0.82;;;35.50;65.30;;;;;;5019829;28;20085;-68
2022/01/01 05:15:46;;;;;;;2.88;1.00;;;35.80;64.30;;;;;;5028119;28;20029;-68
2022/01/01 05:18:15;;;;;;;3.45;0.93;;;35.90;63.80;;;;;;5027031;28;20033;-67
2022/01/01 05:20:42;;;;;;;2.88;0.90;;;35.50;64.70;;;;;;5013226;28;20136;-66
2022/01/01 05:23:09;;;;;;;4.60;1.50;;;35.00;65.80;;;;;;5031939;28;20176;-68
2022/01/01 05:25:36;;;;;;;7.65;1.30;;;34.70;67.10;;;;;;5031420;28;20022;-68
2022/01/01 05:28:03;;;;;;;2.85;1.10;;;34.40;69.10;;;;;;5016837;28;20116;-68
2022/01/01 05:30:30;;;;;;;4.43;1.13;;;34.50;68.80;;;;;;5033146;28;20075;-68
2022/01/01 05:32:59;;;;;;;4.20;1.10;;;34.80;67.70;;;;;;5036432;28;20088;-68
2022/01/01 05:35:26;;;;;;;5.50;1.73;;;34.90;69.60;;;;;;5014161;28;20021;-67
2022/01/01 05:37:53;;;;;;;4.13;1.10;;;34.80;68.00;;;;;;5030476;28;20029;-68
2022/01/01 05:40:21;;;;;;;3.78;1.27;;;34.80;68.00;;;;;;5030266;28;20025;-67
2022/01/01 05:42:48;;;;;;;3.72;1.13;;;34.80;67.60;;;;;;5034888;28;20094;-68
2022/01/01 05:45:15;;;;;;;3.55;1.15;;;34.50;67.90;;;;;;5033784;28;20057;-67
2022/01/01 05:47:42;;;;;;;2.63;1.08;;;33.80;69.80;;;;;;5031664;28;20028;-66
2022/01/01 05:50:09;;;;;;;2.97;1.30;;;33.70;69.30;;;;;;5032781;28;20021;-67
2022/01/01 05:52:36;;;;;;;4.53;1.00;;;33.30;70.70;;;;;;5033744;28;20513;-66
2022/01/01 05:55:03;;;;;;;4.88;1.10;;;32.90;71.30;;;;;;5008843;28;20026;-68
2022/01/01 05:57:30;;;;;;;2.03;1.10;;;32.50;72.90;;;;;;5027726;28;20036;-67
2022/01/01 05:59:57;;;;;;;5.47;1.00;;;32.40;74.50;;;;;;5025697;28;20032;-67
2022/01/01 06:02:24;;;;;;;3.20;1.13;;;32.20;74.70;;;;;;5026942;28;20100;-68
2022/01/01 06:04:51;;;;;;;2.85;1.00;;;32.00;74.40;;;;;;5027614;28;20060;-67
2022/01/01 06:07:18;;;;;;;3.25;1.20;;;32.00;75.10;;;;;;5009536;28;20548;-67
2022/01/01 06:09:45;;;;;;;6.28;1.00;;;31.90;75.30;;;;;;5026965;28;20316;-67
2022/01/01 06:12:12;;;;;;;2.38;1.10;;;31.80;75.40;;;;;;5026711;28;20128;-67
2022/01/01 06:14:39;;;;;;;3.67;1.33;;;31.80;76.50;;;;;;5020931;28;20551;-66
2022/01/01 06:17:06;;;;;;;3.75;1.48;;;31.60;78.80;;;;;;5027270;28;20071;-67
2022/01/01 06:19:33;;;;;;;3.13;0.95;;;31.50;79.20;;;;;;5027395;28;20057;-65
2022/01/01 06:22:00;;;;;;;4.28;1.10;;;31.20;80.20;;;;;;5027098;28;20362;-68
2022/01/01 06:24:27;;;;;;;6.78;1.60;;;31.30;79.90;;;;;;5026591;28;20014;-68
2022/01/01 06:26:54;;;;;;;3.25;1.33;;;31.20;79.90;;;;;;5027575;28;20477;-67
2022/01/01 06:29:21;;;;;;;8.32;1.67;;;31.10;81.10;;;;;;5031507;28;20041;-66
2022/01/01 06:31:48;;;;;;;2.25;1.17;;;30.90;82.20;;;;;;5031036;28;20335;-66
2022/01/01 06:34:15;;;;;;;4.55;1.20;;;31.00;81.40;;;;;;5031535;28;20028;-66
2022/01/01 06:36:42;;;;;;;3.65;1.10;;;31.10;81.60;;;;;;5031594;28;20504;-67
2022/01/01 06:39:09;;;;;;;4.25;1.27;;;31.10;82.40;;;;;;5038548;28;20155;-68
2022/01/01 06:41:35;;;;;;;4.28;1.33;;;31.00;83.20;;;;;;5031083;28;20032;-66
2022/01/01 06:44:02;;;;;;;5.40;1.48;;;31.20;82.50;;;;;;5031178;28;20025;-67
2022/01/01 06:46:29;;;;;;;3.10;1.15;;;31.30;84.10;;;;;;5012783;28;20017;-67
2022/01/01 06:48:56;;;;;;;4.57;1.60;;;31.30;83.70;;;;;;5030870;28;20057;-68
2022/01/01 06:51:23;;;;;;;4.18;1.25;;;31.30;83.90;;;;;;5030486;28;20082;-67
2022/01/01 06:53:50;;;;;;;6.07;1.40;;;31.70;83.30;;;;;;5030601;28;20063;-68
2022/01/01 06:56:17;;;;;;;3.03;1.50;;;31.80;81.90;;;;;;5030734;28;20022;-66
2022/01/01 06:58:45;;;;;;;5.25;1.33;;;31.90;81.80;;;;;;5029893;28;20452;-67
2022/01/01 07:01:12;;;;;;;10.27;2.83;;;31.80;81.80;;;;;;5030672;28;20383;-69
2022/01/01 07:03:39;;;;;;;4.63;1.60;;;31.80;81.20;;;;;;5037468;28;20075;-68
2022/01/01 07:06:06;;;;;;;4.82;1.50;;;31.80;82.10;;;;;;5033569;28;20028;-68
2022/01/01 07:08:33;;;;;;;5.68;1.95;;;31.20;82.20;;;;;;5032920;28;20507;-68
2022/01/01 07:11:00;;;;;;;5.30;1.67;;;30.90;84.60;;;;;;5037534;28;20043;-66
2022/01/01 07:13:27;;;;;;;4.00;1.30;;;30.50;86.10;;;;;;5028900;28;20041;-67
2022/01/01 07:15:54;;;;;;;6.88;1.92;;;30.30;86.20;;;;;;5029382;28;20036;-67
2022/01/01 07:18:21;;;;;;;7.05;1.88;;;30.10;88.60;;;;;;5030268;28;20072;-68
2022/01/01 07:20:48;;;;;;;4.63;1.60;;;30.00;90.10;;;;;;5029411;28;20372;-67
2022/01/01 07:23:15;;;;;;;4.00;1.58;;;29.90;90.50;;;;;;5029970;28;20021;-66
2022/01/01 07:25:42;;;;;;;4.68;1.90;;;29.70;90.70;;;;;;5030268;28;20067;-68
2022/01/01 07:28:13;;;;;;;3.88;1.13;;;29.80;90.70;;;;;;5030234;28;20018;-68
2022/01/01 07:30:40;;;;;;;3.35;1.40;;;29.70;91.50;;;;;;5029728;28;20022;-67
2022/01/01 07:33:07;;;;;;;6.97;1.67;;;29.90;91.90;;;;;;5029766;28;20033;-68
2022/01/01 07:35:36;;;;;;;5.93;1.80;;;30.00;92.00;;;;;;5029862;28;20476;-68
2022/01/01 07:38:03;;;;;;;6.22;1.55;;;30.10;92.30;;;;;;5029581;28;20028;-67
2022/01/01 07:40:34;;;;;;;6.75;1.77;;;30.00;92.70;;;;;;5010478;28;20128;-68
2022/01/01 07:43:13;;;;;;;6.25;1.90;;;29.80;92.70;;;;;;5029801;28;20072;-67
2022/01/01 07:45:41;;;;;;;7.68;2.15;;;29.90;93.00;;;;;;5023975;28;20040;-67
2022/01/01 07:48:09;;;;;;;5.15;1.70;;;29.80;93.70;;;;;;5035227;28;20029;-68
2022/01/01 07:50:37;;;;;;;5.90;1.85;;;30.20;93.30;;;;;;5034361;28;20054;-67
2022/01/01 07:53:05;;;;;;;6.32;1.67;;;31.30;91.60;;;;;;5033907;28;20025;-67
2022/01/01 07:55:33;;;;;;;5.80;1.80;;;32.20;90.30;;;;;;5029776;28;20528;-67
2022/01/01 07:58:00;;;;;;;6.13;1.35;;;33.20;85.60;;;;;;5029658;28;20027;-68
2022/01/01 08:00:27;;;;;;;6.22;1.85;;;33.70;84.20;;;;;;5029120;28;20025;-68
2022/01/01 08:02:54;;;;;;;3.55;1.40;;;33.50;83.00;;;;;;5029504;28;20033;-68
2022/01/01 08:05:21;;;;;;;5.97;1.80;;;33.30;82.20;;;;;;5010256;28;20033;-67
2022/01/01 08:07:48;;;;;;;5.30;1.20;;;33.20;82.00;;;;;;5028751;28;20028;-67
2022/01/01 08:10:15;;;;;;;4.53;1.83;;;33.00;83.60;;;;;;5027717;28;20032;-67
2022/01/01 08:12:42;;;;;;;5.50;1.77;;;32.60;85.00;;;;;;5030885;28;20168;-67
2022/01/01 08:15:09;;;;;;;3.67;1.48;;;33.00;82.80;;;;;;5010832;28;20126;-67
2022/01/01 08:17:36;;;;;;;3.88;1.55;;;33.60;80.80;;;;;;5017450;28;20029;-67
2022/01/01 08:20:05;;;;;;;4.78;1.60;;;33.90;78.50;;;;;;5028105;28;20057;-67
2022/01/01 08:22:32;;;;;;;5.47;1.38;;;34.00;76.40;;;;;;5027868;28;20156;-68
2022/01/01 08:24:58;;;;;;;4.00;1.63;;;34.00;76.20;;;;;;5029514;28;20466;-67
2022/01/01 08:27:25;;;;;;;3.35;1.50;;;33.80;76.50;;;;;;5028347;28;20018;-68
2022/01/01 08:29:52;;;;;;;6.30;1.80;;;33.60;76.00;;;;;;5029305;28;20036;-68
2022/01/01 08:32:19;;;;;;;5.28;1.70;;;32.80;76.90;;;;;;5009429;28;20025;-68
2022/01/01 08:34:46;;;;;;;5.82;2.10;;;32.30;79.50;;;;;;5027945;28;20044;-68
2022/01/01 08:37:13;;;;;;;5.80;2.05;;;31.40;81.70;;;;;;5035599;28;20387;-68
2022/01/01 08:39:40;;;;;;;4.18;1.15;;;30.90;84.90;;;;;;5028133;28;20365;-68
2022/01/01 08:42:09;;;;;;;7.22;1.65;;;30.60;86.00;;;;;;5034477;28;20025;-68
2022/01/01 08:44:36;;;;;;;2.65;1.33;;;30.40;86.90;;;;;;5030560;28;20034;-67
2022/01/01 08:47:03;;;;;;;5.65;1.38;;;30.30;87.40;;;;;;5008699;28;20048;-68
2022/01/01 08:49:30;;;;;;;6.80;1.77;;;29.80;88.40;;;;;;5028963;28;20108;-68
2022/01/01 08:51:59;;;;;;;7.38;2.30;;;29.40;90.50;;;;;;5027786;28;20056;-67
2022/01/01 08:54:26;;;;;;;6.85;1.70;;;28.90;91.50;;;;;;5027612;28;20109;-67
2022/01/01 08:56:53;;;;;;;5.72;2.35;;;28.50;92.70;;;;;;5028499;28;20025;-68
2022/01/01 08:59:20;;;;;;;10.05;1.80;;;28.20;93.30;;;;;;5026929;28;20036;-67
2022/01/01 09:01:47;;;;;;;4.60;2.00;;;27.70;94.30;;;;;;5025556;28;20122;-68
2022/01/01 09:04:14;;;;;;;4.78;1.60;;;27.50;95.20;;;;;;5024468;28;20465;-68
2022/01/01 09:06:41;;;;;;;7.75;1.95;;;27.10;96.10;;;;;;5022681;28;20101;-68
2022/01/01 09:09:07;;;;;;;5.45;1.55;;;26.90;96.90;;;;;;5028316;28;20029;-67
2022/01/01 09:11:34;;;;;;;7.05;1.85;;;26.70;97.50;;;;;;5021001;28;20107;-68
2022/01/01 09:14:01;;;;;;;7.40;1.75;;;26.60;97.90;;;;;;5025658;28;20516;-68
2022/01/01 09:16:30;;;;;;;6.53;1.75;;;26.60;98.70;;;;;;5023535;28;20078;-69
2022/01/01 09:18:57;;;;;;;7.15;1.80;;;26.50;99.10;;;;;;5025637;28;20032;-68
2022/01/01 09:21:27;;;;;;;8.32;2.08;;;26.30;99.90;;;;;;5007740;28;20057;-69
2022/01/01 09:23:55;;;;;;;6.72;1.98;;;26.00;99.90;;;;;;5025868;28;20247;-66
2022/01/01 09:26:22;;;;;;;7.82;2.10;;;25.80;99.90;;;;;;5019043;28;20037;-68
2022/01/01 09:28:49;;;;;;;8.43;1.98;;;25.70;99.90;;;;;;5022702;28;20022;-67
2022/01/01 09:31:16;;;;;;;7.57;1.88;;;25.60;99.90;;;;;;5023321;28;20440;-69
2022/01/01 09:33:44;;;;;;;8.02;2.30;;;25.50;99.90;;;;;;5021343;28;20036;-67
2022/01/01 09:36:14;;;;;;;7.90;2.08;;;25.40;99.90;;;;;;4999188;28;20113;-69
2022/01/01 09:38:42;;;;;;;7.43;1.70;;;25.20;99.90;;;;;;5022594;28;20148;-69
2022/01/01 09:41:10;;;;;;;9.50;1.73;;;25.20;99.90;;;;;;5024885;28;20022;-65
2022/01/01 09:43:37;;;;;;;7.82;2.08;;;25.10;99.90;;;;;;5030737;28;20096;-65
2022/01/01 09:46:04;;;;;;;9.20;2.28;;;25.10;99.90;;;;;;5023281;28;20028;-62
2022/01/01 09:48:31;;;;;;;8.45;2.03;;;25.00;99.90;;;;;;5023282;28;20033;-63
2022/01/01 09:51:02;;;;;;;7.00;2.33;;;25.00;99.90;;;;;;5025666;28;20057;-66
2022/01/01 09:53:32;;;;;;;8.93;1.88;;;24.90;99.90;;;;;;5005821;28;20091;-63
2022/01/01 09:56:01;;;;;;;9.23;2.10;;;24.80;99.90;;;;;;5024336;28;20030;-62
2022/01/01 09:58:31;;;;;;;8.07;2.05;;;24.70;99.90;;;;;;5019441;28;20554;-66
2022/01/01 10:00:59;;;;;;;6.75;2.22;;;24.80;99.90;;;;;;5021145;28;20104;-65
2022/01/01 10:03:40;;;;;;;7.80;2.35;;;24.70;99.90;;;;;;5022774;28;20017;-64
2022/01/01 10:06:15;;;;;;;6.97;2.20;;;24.60;99.90;;;;;;5016245;28;20027;-68
2022/01/01 10:08:46;;;;;;;11.68;2.47;;;24.60;99.90;;;;;;5023185;28;20029;-66
2022/01/01 10:11:17;;;;;;;8.07;1.70;;;24.60;99.90;;;;;;5023480;28;20128;-64
2022/01/01 10:13:45;;;;;;;9.57;2.20;;;24.60;99.90;;;;;;5023044;28;20049;-61
2022/01/01 10:16:13;;;;;;;9.00;2.33;;;24.70;99.90;;;;;;5024184;28;20300;-63
2022/01/01 10:18:42;;;;;;;8.93;2.20;;;24.60;99.90;;;;;;5023628;28;20041;-64
2022/01/01 10:21:12;;;;;;;9.68;2.05;;;24.60;99.90;;;;;;5020454;28;20629;-61
2022/01/01 10:23:43;;;;;;;8.73;2.78;;;24.50;99.90;;;;;;5022077;28;20407;-66
2022/01/01 10:29:27;;;;;;;6.85;2.22;;;24.40;99.90;;;;;;5018625;28;20103;-61
2022/01/01 10:31:55;;;;;;;3.25;1.42;;;24.40;99.90;;;;;;5020722;28;20466;-61
2022/01/01 10:34:25;;;;;;;7.30;2.05;;;24.20;99.90;;;;;;5022348;28;20017;-67
2022/01/01 10:36:53;;;;;;;8.30;2.08;;;24.20;99.90;;;;;;5022510;28;20259;-65
2022/01/01 10:39:21;;;;;;;7.03;1.75;;;24.20;99.90;;;;;;5023444;28;20028;-62
2022/01/01 10:42:04;;;;;;;7.28;1.92;;;24.20;99.90;;;;;;5023139;28;20549;-62
2022/01/01 10:44:34;;;;;;;10.38;3.63;;;24.20;99.90;;;;;;5018811;28;20041;-61
2022/01/01 10:47:21;;;;;;;12.27;5.57;;;24.00;99.90;;;;;;5022567;28;20022;-63
2022/01/01 10:52:29;;;;;;;8.70;2.95;;;24.10;99.90;;;;;;5023385;28;20112;-64
2022/01/01 10:55:04;;;;;;;6.40;2.63;;;24.10;99.90;;;;;;5022491;28;20120;-66
2022/01/01 10:57:36;;;;;;;10.02;2.90;;;24.10;99.90;;;;;;5022537;28;20026;-66
2022/01/01 11:00:14;;;;;;;6.32;2.90;;;24.00;99.90;;;;;;5022373;28;20025;-68
2022/01/01 11:02:44;;;;;;;8.68;3.53;;;23.90;99.90;;;;;;5016845;28;20215;-66
2022/01/01 11:05:12;;;;;;;6.75;3.15;;;23.80;99.90;;;;;;5022300;28;20033;-67
2022/01/01 11:07:49;;;;;;;6.55;2.10;;;23.80;99.90;;;;;;5024217;28;20503;-62
2022/01/01 11:10:18;;;;;;;13.70;4.93;;;23.70;99.90;;;;;;5024253;28;20504;-63
2022/01/01 11:12:46;;;;;;;8.57;4.28;;;23.60;99.90;;;;;;5064745;23;20048;-64
2022/01/01 11:15:13;;;;;;;9.68;3.08;;;23.70;99.90;;;;;;5061953;28;20558;-67
2022/01/01 11:17:42;;;;;;;6.97;2.33;;;23.80;99.90;;;;;;5062810;28;20032;-66
2022/01/01 11:20:10;;;;;;;10.18;2.38;;;23.80;99.90;;;;;;5063934;28;20029;-65
2022/01/01 11:22:37;;;;;;;7.45;2.25;;;23.90;99.90;;;;;;5061361;28;20024;-60
2022/01/01 11:25:04;;;;;;;7.15;2.20;;;23.60;99.90;;;;;;5060410;28;20136;-63
2022/01/01 11:27:32;;;;;;;5.43;1.85;;;23.50;99.90;;;;;;5062277;28;20048;-63
2022/01/01 11:30:00;;;;;;;8.80;2.20;;;23.50;99.90;;;;;;5066205;28;20028;-62
2022/01/01 11:32:50;;;;;;;7.55;2.88;;;23.40;99.90;;;;;;5061736;28;20059;-62
2022/01/01 11:35:28;;;;;;;7.13;2.28;;;23.30;99.90;;;;;;5064725;28;20060;-62
2022/01/01 11:38:10;;;;;;;6.80;2.15;;;23.30;99.90;;;;;;5058732;28;20036;-64
2022/01/01 11:40:58;;;;;;;7.85;2.20;;;23.20;99.90;;;;;;5063741;28;20111;-64
2022/01/01 11:43:51;;;;;;;8.10;2.47;;;23.20;99.90;;;;;;5066414;28;20017;-61
2022/01/01 11:46:29;;;;;;;8.75;1.98;;;23.20;99.90;;;;;;5058388;28;20143;-65
2022/01/01 11:49:04;;;;;;;9.45;2.33;;;23.10;99.90;;;;;;5039518;28;20036;-64
2022/01/01 11:51:52;;;;;;;6.78;2.05;;;23.10;99.90;;;;;;5064126;28;20037;-64
2022/01/01 11:54:33;;;;;;;7.70;2.28;;;22.90;99.90;;;;;;5064891;28;20154;-63
2022/01/01 11:57:10;;;;;;;7.57;2.10;;;22.80;99.90;;;;;;5059906;28;20021;-63
2022/01/01 11:59:40;;;;;;;13.45;2.88;;;22.60;99.90;;;;;;5063756;28;20036;-64
2022/01/01 12:02:25;;;;;;;10.55;2.63;;;22.50;99.90;;;;;;5064613;28;20056;-64
2022/01/01 12:05:07;;;;;;;9.90;2.25;;;22.50;99.90;;;;;;5064799;28;20044;-62
2022/01/01 12:07:52;;;;;;;7.72;2.33;;;22.40;99.90;;;;;;5059325;28;20032;-62
2022/01/01 12:10:25;;;;;;;8.05;2.50;;;22.40;99.90;;;;;;5057559;28;20021;-62
2022/01/01 12:13:09;;;;;;;7.68;3.08;;;22.30;99.90;;;;;;5060913;28;20119;-62
2022/01/01 12:15:55;;;;;;;10.93;2.67;;;22.30;99.90;;;;;;5065034;28;20029;-63
2022/01/01 12:18:23;;;;;;;7.07;2.10;;;22.20;99.90;;;;;;5061640;28;20115;-62
2022/01/01 12:21:01;;;;;;;7.25;2.22;;;22.20;99.90;;;;;;5055973;28;20409;-61
2022/01/01 12:23:37;;;;;;;8.02;2.47;;;22.10;99.90;;;;;;5062175;28;20471;-62
2022/01/01 12:26:12;;;;;;;8.20;2.50;;;22.10;99.90;;;;;;5057437;28;20021;-62
2022/01/01 12:28:40;;;;;;;11.40;2.95;;;22.00;99.90;;;;;;5063069;28;20100;-64
2022/01/01 12:31:08;;;;;;;6.13;1.85;;;22.00;99.90;;;;;;5055927;28;20048;-64
2022/01/01 12:34:00;;;;;;;9.98;2.80;;;22.00;99.90;;;;;;5056670;28;21659;-63
2022/01/01 12:36:28;;;;;;;10.98;2.55;;;21.90;99.90;;;;;;5055707;28;20029;-61
2022/01/01 12:38:57;;;;;;;8.45;2.38;;;21.90;99.90;;;;;;5057073;28;20479;-63
2022/01/01 12:41:46;;;;;;;10.15;2.83;;;21.80;99.90;;;;;;5042996;28;20028;-62
2022/01/01 12:44:13;;;;;;;8.82;2.30;;;21.70;99.90;;;;;;4707249;28;10000061;-64
2022/01/01 12:46:49;;;;;;;9.65;3.08;;;21.70;99.90;;;;;;5059172;28;20020;-63
2022/01/01 12:49:17;;;;;;;8.43;2.55;;;21.80;99.90;;;;;;5041063;28;20435;-64
2022/01/01 12:51:45;;;;;;;12.23;2.72;;;21.70;99.90;;;;;;5056813;28;20101;-61
2022/01/01 12:54:14;;;;;;;7.65;2.28;;;21.70;99.90;;;;;;5052165;28;20028;-62
2022/01/01 12:56:43;;;;;;;4.93;2.40;;;21.70;99.90;;;;;;5070899;28;20020;-64
2022/01/01 12:59:13;;;;;;;12.75;2.40;;;21.70;99.90;;;;;;5070028;28;20021;-63
2022/01/01 13:01:47;;;;;;;6.38;2.35;;;21.70;99.90;;;;;;5070599;28;20028;-61
2022/01/01 13:04:20;;;;;;;9.45;2.75;;;21.70;99.90;;;;;;5068308;28;20108;-63